Time;durP1;ratioP1;P1;durP2;ratioP2;P2;SDS_P1;SDS_P2;PMS_P1;PMS_P2;Temp;Humidity;BMP_temperature;BMP_pressure;BME280_temperature;BME280_humidity;BME280_pressure;Samples;Min_cycle;Max_cycle;Signal;HPM_P1;HPM_P2
2022/05/22 04:01:01;;;;;;;9.35;5.15;;;8.40;99.90;;;;;;5661434;23;20172;-77
2022/05/22 04:03:27;;;;;;;9.68;5.55;;;8.40;99.90;;;;;;4939726;28;20047;-79
2022/05/22 04:05:53;;;;;;;9.45;5.30;;;8.40;99.90;;;;;;4953096;28;20391;-78
2022/05/22 04:08:19;;;;;;;9.98;5.93;;;8.50;99.90;;;;;;4958813;28;20133;-79
2022/05/22 04:10:44;;;;;;;11.18;5.68;;;8.50;99.90;;;;;;4957367;28;20058;-78
2022/05/22 04:13:10;;;;;;;10.23;5.78;;;8.50;99.90;;;;;;4948803;28;20058;-78
2022/05/22 04:15:35;;;;;;;11.30;5.30;;;8.50;99.90;;;;;;4958682;28;20046;-78
2022/05/22 04:18:02;;;;;;;9.90;5.95;;;8.50;99.90;;;;;;4958427;28;20041;-79
2022/05/22 04:20:28;;;;;;;9.98;6.05;;;8.50;99.90;;;;;;4941631;28;20085;-78
2022/05/22 04:25:38;;;;;;;11.98;5.75;;;8.50;99.90;;;;;;4939072;29;20044;-78
2022/05/22 04:28:04;;;;;;;9.25;5.28;;;8.60;99.90;;;;;;4939019;29;20054;-80
2022/05/22 04:30:30;;;;;;;12.48;5.47;;;8.60;99.90;;;;;;4926468;28;20043;-79
2022/05/22 04:32:56;;;;;;;13.25;6.55;;;8.60;99.90;;;;;;4965871;28;20041;-78
2022/05/22 04:35:22;;;;;;;10.90;6.50;;;8.60;99.90;;;;;;4965874;28;20039;-78
2022/05/22 04:37:48;;;;;;;14.45;6.35;;;8.60;99.90;;;;;;4958933;28;20047;-80
2022/05/22 04:40:13;;;;;;;16.25;7.28;;;8.60;99.90;;;;;;4957145;28;20399;-79
2022/05/22 04:42:40;;;;;;;13.15;6.78;;;8.70;99.90;;;;;;4950546;28;20117;-78
2022/05/22 04:45:07;;;;;;;11.75;6.53;;;8.70;99.90;;;;;;4948853;28;20436;-79
2022/05/22 04:47:38;;;;;;;15.45;7.60;;;8.70;99.90;;;;;;4948747;28;20034;-79
2022/05/22 04:50:05;;;;;;;16.83;7.35;;;8.80;99.90;;;;;;4932815;28;20054;-78
2022/05/22 04:52:32;;;;;;;14.13;7.72;;;8.80;99.90;;;;;;4941536;29;20385;-78
2022/05/22 04:54:57;;;;;;;18.33;7.97;;;8.80;99.90;;;;;;4939030;29;20043;-79
2022/05/22 04:57:23;;;;;;;14.60;7.72;;;8.90;99.90;;;;;;4938896;29;20379;-78
2022/05/22 04:59:49;;;;;;;16.73;8.63;;;8.90;99.90;;;;;;4955657;29;20476;-78
2022/05/22 05:02:14;;;;;;;18.00;8.15;;;8.90;99.90;;;;;;4943711;29;20047;-78
2022/05/22 05:04:40;;;;;;;16.40;7.68;;;8.90;99.90;;;;;;4972787;28;20035;-78
2022/05/22 05:07:07;;;;;;;16.65;8.15;;;9.00;99.90;;;;;;4951775;28;20049;-81
2022/05/22 05:09:34;;;;;;;14.70;8.02;;;9.00;99.90;;;;;;4955051;28;20392;-78
2022/05/22 05:12:01;;;;;;;16.25;8.98;;;9.10;99.90;;;;;;4974767;28;20045;-78
2022/05/22 05:14:26;;;;;;;17.50;8.93;;;9.10;99.90;;;;;;4957796;28;20130;-79
2022/05/22 05:16:52;;;;;;;20.70;9.38;;;9.20;99.90;;;;;;4974627;28;20121;-78
2022/05/22 05:19:17;;;;;;;18.60;9.80;;;9.20;99.90;;;;;;4974929;28;20090;-77
2022/05/22 05:21:43;;;;;;;22.80;10.25;;;9.20;99.90;;;;;;4957264;28;20475;-79
2022/05/22 05:24:08;;;;;;;18.75;9.20;;;9.30;99.90;;;;;;4957529;28;20059;-78
2022/05/22 05:26:35;;;;;;;18.92;9.18;;;9.30;99.90;;;;;;4957151;28;20533;-78
2022/05/22 05:29:01;;;;;;;18.52;8.70;;;9.30;99.90;;;;;;4957501;28;20388;-78
2022/05/22 05:31:26;;;;;;;21.40;9.90;;;9.40;99.90;;;;;;4974407;28;20044;-79
2022/05/22 05:33:52;;;;;;;24.83;10.95;;;9.40;99.90;;;;;;4957371;28;20395;-78
2022/05/22 05:36:17;;;;;;;26.20;11.43;;;9.50;99.90;;;;;;4957203;28;20083;-78
2022/05/22 05:38:43;;;;;;;22.50;10.15;;;9.60;99.90;;;;;;4974705;28;20451;-78
2022/05/22 05:41:09;;;;;;;23.20;10.60;;;9.70;99.90;;;;;;4974610;28;20027;-79
2022/05/22 05:43:34;;;;;;;22.27;10.25;;;9.80;99.90;;;;;;4957041;28;20082;-79
2022/05/22 05:46:00;;;;;;;22.60;10.43;;;9.90;99.90;;;;;;4974645;28;20039;-79
2022/05/22 05:48:26;;;;;;;21.75;10.50;;;10.00;99.90;;;;;;4975054;28;20039;-79
2022/05/22 05:50:52;;;;;;;20.88;11.20;;;10.00;99.90;;;;;;4956932;28;20055;-77
2022/05/22 05:53:17;;;;;;;21.38;10.52;;;10.10;99.90;;;;;;4974647;28;20050;-79
2022/05/22 05:55:43;;;;;;;20.98;10.23;;;10.20;99.90;;;;;;4956903;28;20482;-79
2022/05/22 05:58:08;;;;;;;20.30;9.93;;;10.30;99.90;;;;;;4978231;28;20035;-78
2022/05/22 06:00:34;;;;;;;15.90;9.82;;;10.40;99.90;;;;;;4978059;28;20058;-78
2022/05/22 06:03:01;;;;;;;22.10;9.50;;;10.50;99.90;;;;;;4960879;28;20050;-78
2022/05/22 06:05:26;;;;;;;18.48;10.23;;;10.60;99.90;;;;;;4961090;28;20402;-79
2022/05/22 06:07:52;;;;;;;24.17;10.82;;;10.60;99.90;;;;;;4961149;28;20038;-76
2022/05/22 06:10:20;;;;;;;23.30;10.23;;;10.70;99.90;;;;;;4960697;28;20058;-78
2022/05/22 06:12:46;;;;;;;21.15;9.77;;;10.80;99.90;;;;;;4978257;28;20049;-82
2022/05/22 06:15:13;;;;;;;22.98;10.20;;;10.90;99.90;;;;;;4954555;29;20043;-79
2022/05/22 06:17:46;;;;;;;16.40;8.82;;;11.00;99.90;;;;;;4959215;29;20397;-79
2022/05/22 06:20:16;;;;;;;14.82;8.10;;;11.10;99.90;;;;;;4942414;29;20039;-80
2022/05/22 06:22:44;;;;;;;13.85;8.45;;;11.10;99.90;;;;;;4956395;28;20468;-74
2022/05/22 06:25:11;;;;;;;16.90;8.00;;;11.20;99.90;;;;;;4983068;28;20067;-77
2022/05/22 06:27:36;;;;;;;18.63;8.13;;;11.30;99.90;;;;;;4931263;28;20589;-77
2022/05/22 06:30:04;;;;;;;18.65;8.40;;;11.40;99.90;;;;;;4951362;28;20079;-78
2022/05/22 06:32:30;;;;;;;16.38;8.05;;;11.50;99.90;;;;;;4977762;28;20035;-79
2022/05/22 06:34:58;;;;;;;19.02;7.35;;;11.50;99.90;;;;;;4960375;28;20446;-76
2022/05/22 06:37:24;;;;;;;14.88;7.47;;;11.60;99.90;;;;;;4960670;28;20050;-79
2022/05/22 06:39:50;;;;;;;17.50;7.40;;;11.70;99.90;;;;;;4977839;28;20045;-78
2022/05/22 06:42:28;;;;;;;15.65;7.30;;;11.80;99.90;;;;;;4958242;28;20113;-79
2022/05/22 06:45:04;;;;;;;16.10;7.63;;;11.80;99.90;;;;;;4966708;28;20070;-79
2022/05/22 06:47:31;;;;;;;16.05;6.60;;;11.90;99.90;;;;;;4969359;28;20133;-79
2022/05/22 06:49:58;;;;;;;13.25;7.13;;;11.90;99.90;;;;;;4944387;28;20066;-80
2022/05/22 06:52:25;;;;;;;16.50;6.85;;;12.00;99.90;;;;;;4977222;28;20042;-77
2022/05/22 06:54:51;;;;;;;16.70;6.85;;;12.00;99.90;;;;;;4965893;28;20087;-79
2022/05/22 06:57:19;;;;;;;13.93;6.40;;;12.00;99.90;;;;;;4968340;28;20035;-79
2022/05/22 06:59:46;;;;;;;18.48;7.30;;;12.10;99.90;;;;;;4932328;29;20042;-79
2022/05/22 07:02:13;;;;;;;17.77;6.50;;;12.30;99.90;;;;;;4940073;29;20484;-78
2022/05/22 07:04:39;;;;;;;12.55;5.75;;;12.30;99.90;;;;;;4940202;29;20050;-78
2022/05/22 07:07:05;;;;;;;12.85;6.10;;;12.40;99.90;;;;;;4940555;29;20404;-79
2022/05/22 07:09:31;;;;;;;13.45;5.50;;;12.50;99.90;;;;;;4957444;28;20043;-79
2022/05/22 07:11:59;;;;;;;12.57;5.28;;;12.60;99.90;;;;;;4940131;29;20494;-80
2022/05/22 07:14:27;;;;;;;12.43;5.45;;;12.60;99.90;;;;;;4957332;29;20055;-79
2022/05/22 07:16:54;;;;;;;14.63;5.90;;;12.80;99.90;;;;;;4957764;29;20119;-80
2022/05/22 07:19:20;;;;;;;12.90;5.28;;;12.80;99.90;;;;;;4957665;29;20415;-79
2022/05/22 07:21:46;;;;;;;13.85;5.13;;;12.80;99.90;;;;;;4924047;29;20118;-79
2022/05/22 07:24:13;;;;;;;11.10;5.00;;;12.90;99.90;;;;;;4957046;29;20070;-78
2022/05/22 07:26:38;;;;;;;12.20;4.85;;;13.00;99.90;;;;;;4939925;29;20050;-78
2022/05/22 07:29:04;;;;;;;13.13;4.72;;;13.00;99.90;;;;;;4940190;29;20051;-78
2022/05/22 07:31:32;;;;;;;8.05;4.15;;;13.10;99.90;;;;;;4939440;29;20035;-79
2022/05/22 07:33:58;;;;;;;15.68;5.55;;;13.20;99.90;;;;;;4939455;29;20507;-79
2022/05/22 07:36:23;;;;;;;11.98;4.80;;;13.20;99.90;;;;;;4940126;29;20075;-79
2022/05/22 07:38:49;;;;;;;11.85;4.40;;;13.40;99.90;;;;;;4940003;29;20039;-82
2022/05/22 07:41:15;;;;;;;9.77;4.13;;;13.50;99.90;;;;;;4939952;29;20042;-78
2022/05/22 07:43:41;;;;;;;9.90;3.78;;;13.60;99.90;;;;;;4939526;29;20098;-78
2022/05/22 07:46:08;;;;;;;9.98;3.17;;;13.70;99.90;;;;;;4939532;29;20122;-80
2022/05/22 07:48:34;;;;;;;9.82;2.97;;;13.80;99.90;;;;;;4956890;29;20554;-78
2022/05/22 07:51:03;;;;;;;11.00;3.90;;;14.00;99.90;;;;;;4939704;29;20047;-79
2022/05/22 07:53:29;;;;;;;13.80;3.20;;;14.00;99.90;;;;;;4956904;29;20052;-79
2022/05/22 07:55:55;;;;;;;10.75;2.97;;;14.20;99.90;;;;;;4923259;29;20047;-79
2022/05/22 07:58:22;;;;;;;11.18;3.10;;;14.30;99.90;;;;;;4939949;29;20167;-78
2022/05/22 08:00:50;;;;;;;13.85;3.30;;;14.40;99.90;;;;;;4939481;29;20498;-78
2022/05/22 08:03:17;;;;;;;10.82;3.20;;;14.50;99.90;;;;;;4939094;29;20046;-79
2022/05/22 08:05:43;;;;;;;8.13;3.38;;;14.60;99.90;;;;;;4956313;29;20050;-78
2022/05/22 08:08:10;;;;;;;14.90;4.40;;;14.70;99.90;;;;;;4939573;29;20129;-79
2022/05/22 08:10:37;;;;;;;11.35;3.45;;;14.80;99.90;;;;;;4970015;28;20054;-78
2022/05/22 08:13:05;;;;;;;12.23;3.40;;;14.90;99.90;;;;;;4975751;28;20039;-80
2022/05/22 08:15:32;;;;;;;14.60;3.20;;;15.00;99.90;;;;;;4958605;28;20043;-79
2022/05/22 08:17:59;;;;;;;11.50;3.40;;;15.00;99.90;;;;;;4958535;28;20043;-79
2022/05/22 08:20:26;;;;;;;9.27;3.35;;;15.10;99.90;;;;;;4958602;28;20499;-78
2022/05/22 08:22:57;;;;;;;12.30;3.25;;;15.10;99.90;;;;;;4958251;28;20480;-79
2022/05/22 08:25:26;;;;;;;13.57;3.83;;;15.20;99.90;;;;;;4958862;28;20089;-79
2022/05/22 08:27:52;;;;;;;9.73;2.40;;;15.30;99.90;;;;;;4958171;28;20051;-78
2022/05/22 08:30:19;;;;;;;8.27;2.38;;;15.40;99.90;;;;;;4975664;28;20093;-78
2022/05/22 08:32:46;;;;;;;7.03;2.58;;;15.50;99.90;;;;;;4975672;28;20121;-79
2022/05/22 08:35:15;;;;;;;8.15;2.88;;;15.60;99.90;;;;;;4958088;28;20498;-79
2022/05/22 08:37:41;;;;;;;12.68;2.88;;;15.70;99.90;;;;;;4942870;28;20051;-80
2022/05/22 08:40:09;;;;;;;11.38;2.20;;;15.80;99.90;;;;;;4942852;28;20125;-80
2022/05/22 08:42:49;;;;;;;9.23;2.22;;;15.80;99.90;;;;;;4941913;28;20101;-78
2022/05/22 08:45:23;;;;;;;8.35;2.20;;;15.90;99.90;;;;;;4957980;28;20109;-82
2022/05/22 08:48:10;;;;;;;6.93;2.25;;;16.00;99.90;;;;;;4958320;28;20101;-78
2022/05/22 08:50:36;;;;;;;10.30;2.40;;;16.00;99.90;;;;;;4958052;28;20050;-79
2022/05/22 08:53:11;;;;;;;7.85;2.65;;;16.10;99.90;;;;;;4956842;28;20035;-79
2022/05/22 08:58:58;;;;;;;7.82;2.58;;;16.20;99.90;;;;;;4887211;29;20140;-79
2022/05/22 09:01:48;;;;;;;13.98;2.78;;;16.30;99.90;;;;;;4938387;29;20047;-79
2022/05/22 09:04:30;;;;;;;12.48;3.17;;;16.40;99.90;;;;;;4938316;29;20118;-79
2022/05/22 09:07:12;;;;;;;12.45;2.92;;;16.60;99.90;;;;;;4938750;29;20065;-79
2022/05/22 09:09:40;;;;;;;12.75;2.72;;;16.70;99.90;;;;;;4938782;29;20444;-80
2022/05/22 09:12:28;;;;;;;12.32;3.15;;;16.70;99.90;;;;;;4955291;29;20053;-80
2022/05/22 09:15:34;;;;;;;11.00;2.40;;;16.80;99.90;;;;;;4955448;29;20039;-79
2022/05/22 09:18:15;;;;;;;9.87;2.33;;;17.00;99.90;;;;;;4938498;29;20059;-80
2022/05/22 09:20:57;;;;;;;9.63;2.95;;;17.20;99.90;;;;;;4927284;29;20301;-78
2022/05/22 09:23:56;;;;;;;11.00;2.53;;;17.20;99.90;;;;;;4937760;29;20039;-78
2022/05/22 09:26:33;;;;;;;8.35;2.33;;;17.20;99.90;;;;;;4937643;29;20047;-79
2022/05/22 09:29:25;;;;;;;9.70;2.40;;;17.20;99.90;;;;;;4955453;29;20051;-76
2022/05/22 09:32:00;;;;;;;6.57;2.08;;;17.20;99.90;;;;;;4937434;29;20051;-78
2022/05/22 09:34:28;;;;;;;9.40;3.05;;;17.30;99.90;;;;;;4921444;29;20055;-79
2022/05/22 09:37:00;;;;;;;7.35;2.55;;;17.40;99.90;;;;;;4937626;29;20055;-78
2022/05/22 09:39:26;;;;;;;7.55;2.67;;;17.40;99.90;;;;;;4954968;29;20041;-79
2022/05/22 09:41:57;;;;;;;9.57;2.10;;;17.50;99.90;;;;;;4949649;28;20035;-78
2022/05/22 09:44:37;;;;;;;7.93;2.38;;;17.70;99.90;;;;;;4956476;28;20107;-81
2022/05/22 09:47:29;;;;;;;8.48;1.92;;;17.80;99.90;;;;;;4942733;29;20043;-79
2022/05/22 09:50:22;;;;;;;5.50;1.98;;;17.90;99.90;;;;;;4955030;29;20411;-79
2022/05/22 09:53:02;;;;;;;8.60;1.90;;;18.10;99.90;;;;;;4921927;29;20054;-79
2022/05/22 09:55:34;;;;;;;5.97;1.65;;;18.10;99.90;;;;;;4937301;29;20047;-78
2022/05/22 09:58:24;;;;;;;6.63;2.20;;;18.20;99.90;;;;;;4937897;29;20066;-81
2022/05/22 10:01:03;;;;;;;9.25;2.50;;;18.30;99.90;;;;;;4955134;29;20054;-78
2022/05/22 10:03:58;;;;;;;7.07;2.40;;;18.30;99.90;;;;;;4937390;29;20050;-78
2022/05/22 10:06:53;;;;;;;7.82;2.00;;;18.50;99.90;;;;;;4938137;29;20120;-78
2022/05/22 10:09:45;;;;;;;4.70;1.80;;;18.60;99.90;;;;;;4954831;29;20493;-79
2022/05/22 10:12:26;;;;;;;7.32;2.15;;;18.50;99.90;;;;;;4937512;29;20051;-78
2022/05/22 10:15:40;;;;;;;9.93;1.85;;;18.40;99.90;;;;;;4937301;29;20043;-78
2022/05/22 10:18:28;;;;;;;8.02;1.60;;;18.30;99.90;;;;;;4924909;29;20144;-79
2022/05/22 10:21:06;;;;;;;8.43;1.92;;;18.20;99.90;;;;;;4937683;29;20407;-77
2022/05/22 10:24:09;;;;;;;8.02;2.13;;;18.20;99.90;;;;;;4937497;29;20043;-79
2022/05/22 10:26:53;;;;;;;7.95;1.58;;;18.10;99.90;;;;;;4937691;29;20043;-80
2022/05/22 10:29:33;;;;;;;7.03;1.50;;;18.20;99.90;;;;;;4938379;29;20412;-79
2022/05/22 10:32:28;;;;;;;6.70;1.73;;;18.40;99.90;;;;;;4937618;29;20392;-79
2022/05/22 10:35:22;;;;;;;6.97;1.52;;;18.70;99.90;;;;;;4938056;29;20388;-79
2022/05/22 10:38:07;;;;;;;6.80;1.98;;;18.90;99.90;;;;;;4937817;29;20051;-79
2022/05/22 10:43:36;;;;;;;4.25;1.30;;;18.40;99.90;;;;;;4899559;29;19919;-79
2022/05/22 10:46:03;;;;;;;4.88;1.88;;;18.40;99.90;;;;;;4933388;29;20141;-80
2022/05/22 10:48:31;;;;;;;11.02;1.83;;;18.70;99.90;;;;;;4940999;29;20126;-81
2022/05/22 10:51:02;;;;;;;8.20;2.10;;;18.90;99.90;;;;;;4940809;29;20051;-80
2022/05/22 10:53:47;;;;;;;8.93;2.40;;;19.10;99.90;;;;;;4925059;29;20075;-81
2022/05/22 10:56:26;;;;;;;8.85;1.90;;;19.20;99.90;;;;;;4941036;29;20388;-78
2022/05/22 10:59:18;;;;;;;5.80;1.50;;;19.20;99.90;;;;;;4940527;29;20070;-79
2022/05/22 11:01:43;;;;;;;5.43;2.00;;;19.20;99.90;;;;;;4940487;29;20145;-79
2022/05/22 11:04:16;;;;;;;10.18;1.90;;;19.10;99.90;;;;;;4940449;29;20122;-80
2022/05/22 11:06:59;;;;;;;5.60;2.00;;;18.90;99.90;;;;;;4957772;29;20043;-78
2022/05/22 11:09:31;;;;;;;5.30;1.67;;;18.70;99.90;;;;;;4957520;29;20043;-80
2022/05/22 11:12:29;;;;;;;7.28;1.92;;;18.60;99.90;;;;;;4957530;29;20101;-78
2022/05/22 11:15:25;;;;;;;5.78;2.00;;;18.40;99.90;;;;;;4909167;29;20109;-79
2022/05/22 11:18:09;;;;;;;7.57;2.35;;;18.30;99.90;;;;;;4924237;29;20122;-78
2022/05/22 11:20:38;;;;;;;5.88;1.95;;;18.20;99.90;;;;;;4940128;29;20592;-78
2022/05/22 11:23:27;;;;;;;5.97;1.70;;;18.10;99.90;;;;;;4957440;29;20506;-80
2022/05/22 11:26:37;;;;;;;5.60;1.50;;;18.10;99.90;;;;;;4957417;29;20126;-79
2022/05/22 11:29:09;;;;;;;7.65;1.70;;;18.10;99.90;;;;;;4924093;29;20487;-77
2022/05/22 11:31:51;;;;;;;7.65;2.05;;;18.10;99.90;;;;;;4957093;29;20054;-78
2022/05/22 11:34:55;;;;;;;6.80;1.65;;;18.40;99.90;;;;;;4924675;29;20122;-83
2022/05/22 11:37:48;;;;;;;5.40;1.67;;;18.60;99.90;;;;;;4920861;29;20051;-79
2022/05/22 11:42:43;;;;;;;4.72;1.38;;;18.60;99.90;;;;;;5070575;23;20055;-79
2022/05/22 11:45:44;;;;;;;;;;;;;;;;;;;;;
2022/05/22 11:49:09;;;;;;;;;;;;;;;;;;;;;
2022/05/22 12:00:01;;;;;;;6.97;1.42;;;18.90;99.90;;;;;;4995331;28;20090;-76
2022/05/22 12:16:12;;;;;;;5.35;1.17;;;20.70;99.90;;;;;;4978448;28;19933;-77
2022/05/22 12:19:08;;;;;;;4.10;1.17;;;21.00;99.90;;;;;;4984859;28;20038;-76
2022/05/22 12:21:53;;;;;;;;;;;21.20;99.90;;;;;;4961853;28;20046;-77
2022/05/22 12:24:42;;;;;;;5.50;1.60;;;21.30;99.90;;;;;;4958674;28;19918;-77
2022/05/22 12:27:35;;;;;;;3.60;0.98;;;21.20;99.90;;;;;;4958931;28;20054;-77
2022/05/22 12:30:11;;;;;;;4.95;1.25;;;21.20;99.90;;;;;;4958888;28;20070;-78
2022/05/22 12:32:42;;;;;;;5.25;1.10;;;21.20;99.90;;;;;;4957051;28;20097;-78
2022/05/22 12:35:08;;;;;;;4.88;1.23;;;21.40;99.90;;;;;;4957994;28;20050;-79
2022/05/22 12:37:49;;;;;;;6.07;1.33;;;21.50;99.90;;;;;;4975796;28;20035;-78
2022/05/22 12:40:27;;;;;;;5.40;1.83;;;21.50;99.90;;;;;;4975469;28;20118;-79
2022/05/22 12:42:57;;;;;;;4.10;1.00;;;21.50;99.90;;;;;;4958540;28;20078;-80
2022/05/22 12:45:28;;;;;;;5.95;1.15;;;21.30;99.90;;;;;;4942641;28;20066;-80
2022/05/22 12:47:56;;;;;;;2.83;0.80;;;21.30;99.90;;;;;;4942307;28;20046;-78
2022/05/22 12:50:36;;;;;;;2.92;0.85;;;21.20;99.90;;;;;;4975416;28;20042;-80
2022/05/22 12:53:14;;;;;;;9.00;1.42;;;21.00;97.80;;;;;;4942205;28;20042;-76
2022/05/22 12:55:39;;;;;;;3.88;1.23;;;20.70;99.30;;;;;;4957584;28;20142;-79
2022/05/22 12:58:06;;;;;;;4.47;1.20;;;20.50;99.90;;;;;;4957986;28;20122;-79
2022/05/22 13:00:41;;;;;;;8.13;1.40;;;20.50;99.90;;;;;;4957240;28;20121;-78
2022/05/22 13:03:09;;;;;;;4.05;1.17;;;20.60;99.90;;;;;;4942258;28;20094;-78
2022/05/22 13:05:35;;;;;;;6.22;1.35;;;20.80;99.90;;;;;;4957131;28;20374;-79
2022/05/22 13:08:01;;;;;;;5.03;1.48;;;21.00;99.90;;;;;;4957201;28;20047;-80
2022/05/22 13:10:35;;;;;;;4.55;1.13;;;21.20;99.90;;;;;;4957805;28;20042;-78
2022/05/22 13:13:07;;;;;;;4.53;1.42;;;21.50;99.90;;;;;;4957759;28;20039;-81
2022/05/22 13:15:34;;;;;;;5.20;1.23;;;21.60;99.90;;;;;;4975269;28;20459;-79
2022/05/22 13:18:12;;;;;;;5.30;1.52;;;21.70;99.90;;;;;;4957504;28;20053;-80
2022/05/22 13:20:38;;;;;;;5.20;1.20;;;21.90;99.90;;;;;;4974777;28;20038;-80
2022/05/22 13:23:25;;;;;;;5.32;1.30;;;22.00;99.90;;;;;;4957528;28;20054;-80
2022/05/22 13:25:56;;;;;;;7.05;1.30;;;21.90;99.90;;;;;;4957146;28;20089;-80
2022/05/22 13:28:27;;;;;;;5.13;1.20;;;22.00;99.90;;;;;;4953257;29;20484;-80
2022/05/22 13:31:11;;;;;;;5.53;1.10;;;22.10;99.90;;;;;;4938404;29;20126;-80
2022/05/22 13:33:52;;;;;;;4.07;1.17;;;22.10;99.90;;;;;;4955643;29;20035;-81
2022/05/22 13:36:30;;;;;;;5.43;1.20;;;22.10;99.90;;;;;;4955076;29;20075;-77
2022/05/22 13:39:04;;;;;;;4.38;1.15;;;22.10;99.50;;;;;;4955538;29;20411;-79
2022/05/22 13:42:02;;;;;;;4.80;1.30;;;22.40;99.90;;;;;;4954117;29;20540;-82
2022/05/22 13:44:56;;;;;;;6.47;1.30;;;22.50;99.70;;;;;;4936308;28;20117;-81
2022/05/22 13:47:47;;;;;;;4.75;0.98;;;22.20;99.90;;;;;;4957001;28;20526;-81
2022/05/22 13:53:33;;;;;;;7.03;1.52;;;21.80;99.90;;;;;;4974270;28;20129;-82
2022/05/22 13:55:58;;;;;;;2.67;0.95;;;21.50;99.30;;;;;;4956849;28;20046;-79
2022/05/22 13:58:29;;;;;;;2.55;0.93;;;21.50;99.90;;;;;;4956685;28;20098;-80
2022/05/22 14:00:57;;;;;;;2.53;1.20;;;21.70;99.90;;;;;;4950794;29;20039;-80
2022/05/22 14:03:57;;;;;;;4.78;1.33;;;21.90;99.90;;;;;;4930562;28;20046;-81
2022/05/22 14:06:30;;;;;;;3.97;1.10;;;21.80;99.60;;;;;;4915948;28;20051;-82
2022/05/22 14:08:57;;;;;;;5.78;1.33;;;21.90;99.90;;;;;;4955150;28;20039;-81
2022/05/22 14:11:27;;;;;;;3.83;1.10;;;22.00;99.90;;;;;;4956484;28;20049;-81
2022/05/22 14:14:08;;;;;;;3.03;0.98;;;22.30;99.50;;;;;;4956019;28;20126;-80
2022/05/22 14:16:40;;;;;;;5.72;1.10;;;22.30;96.30;;;;;;4955279;28;20511;-82
2022/05/22 14:19:13;;;;;;;5.13;1.10;;;22.30;98.40;;;;;;4959954;28;20042;-81
2022/05/22 14:21:45;;;;;;;3.75;1.17;;;22.60;99.40;;;;;;4960118;28;20039;-82
2022/05/22 14:27:39;;;;;;;5.03;1.20;;;22.90;98.10;;;;;;4976198;28;20055;-84
2022/05/22 14:30:15;;;;;;;6.25;1.10;;;23.00;97.10;;;;;;4928178;28;20046;-82
2022/05/22 14:32:44;;;;;;;2.70;1.15;;;23.10;97.50;;;;;;4977253;28;20046;-82
2022/05/22 14:35:23;;;;;;;4.18;1.17;;;23.00;97.70;;;;;;4978431;28;20035;-80
2022/05/22 14:37:49;;;;;;;4.25;1.30;;;22.70;96.80;;;;;;4944899;28;20043;-81
2022/05/22 14:40:21;;;;;;;4.10;1.00;;;22.30;97.20;;;;;;4959978;28;20077;-82
2022/05/22 14:42:52;;;;;;;5.28;1.05;;;22.10;97.20;;;;;;4960091;28;20070;-81
2022/05/22 14:45:31;;;;;;;4.40;1.17;;;21.80;98.40;;;;;;4944597;28;20062;-81
2022/05/22 14:47:59;;;;;;;5.25;1.60;;;21.80;99.40;;;;;;4960370;28;20555;-81
2022/05/22 14:50:25;;;;;;;3.35;1.10;;;22.00;99.90;;;;;;4960295;28;20050;-81
2022/05/22 14:53:14;;;;;;;4.88;1.58;;;22.10;99.90;;;;;;4977745;28;20031;-82
2022/05/22 14:55:47;;;;;;;5.20;1.52;;;22.20;99.60;;;;;;4959906;28;20167;-79
2022/05/22 14:58:28;;;;;;;5.57;1.30;;;22.20;99.90;;;;;;4957944;28;20135;-83
2022/05/22 15:00:57;;;;;;;5.03;1.35;;;22.30;99.90;;;;;;4944332;28;20059;-81
2022/05/22 15:03:41;;;;;;;5.80;1.45;;;22.50;99.90;;;;;;4943912;28;20108;-80
2022/05/22 15:06:07;;;;;;;6.05;1.30;;;22.60;99.90;;;;;;4977595;28;20042;-81
2022/05/22 15:08:40;;;;;;;7.32;1.70;;;22.50;99.90;;;;;;4959610;28;20583;-79
2022/05/22 15:11:37;;;;;;;4.53;1.50;;;22.50;99.90;;;;;;4959674;28;20106;-80
2022/05/22 15:14:15;;;;;;;6.57;1.55;;;22.60;99.60;;;;;;4976069;28;20038;-81
2022/05/22 15:16:42;;;;;;;4.78;1.30;;;22.50;98.80;;;;;;4960197;28;20110;-81
2022/05/22 15:19:49;;;;;;;7.15;1.25;;;22.40;99.90;;;;;;4976799;28;20097;-81
2022/05/22 15:25:27;;;;;;;5.28;1.40;;;22.10;99.90;;;;;;4959369;28;20050;-80
2022/05/22 15:27:59;;;;;;;4.38;1.08;;;22.20;99.90;;;;;;4959461;28;20093;-82
2022/05/22 15:30:28;;;;;;;3.13;1.02;;;22.40;99.90;;;;;;4942823;28;20081;-82
2022/05/22 15:33:21;;;;;;;3.72;1.08;;;22.40;99.70;;;;;;4976727;28;20074;-81
2022/05/22 15:36:05;;;;;;;3.70;1.50;;;22.20;98.90;;;;;;4959194;28;20047;-82
2022/05/22 15:38:34;;;;;;;4.47;1.30;;;21.90;99.80;;;;;;4977036;28;20078;-80
2022/05/22 15:41:06;;;;;;;4.72;1.20;;;21.60;99.90;;;;;;4976591;28;20047;-82
2022/05/22 15:43:35;;;;;;;6.22;1.63;;;21.40;99.90;;;;;;4959284;28;20047;-86
2022/05/22 15:46:06;;;;;;;6.93;1.38;;;21.20;99.90;;;;;;4943560;28;20057;-82
2022/05/22 15:51:35;;;;;;;4.15;1.13;;;21.10;99.90;;;;;;4958907;28;20204;-82
2022/05/22 15:54:00;;;;;;;4.07;1.45;;;21.30;99.90;;;;;;4959039;28;20383;-82
2022/05/22 15:56:26;;;;;;;9.88;1.88;;;21.50;99.90;;;;;;4958700;28;20046;-82
2022/05/22 15:58:52;;;;;;;5.78;1.33;;;21.60;99.90;;;;;;4958941;28;20129;-82
2022/05/22 16:10:01;;;;;;;5.63;1.70;;;22.20;99.90;;;;;;4859443;29;20047;-81
2022/05/22 16:15:29;;;;;;;;;;;;;;;;;;;;;
2022/05/22 16:18:09;;;;;;;6.60;1.42;;;22.60;99.90;;;;;;4938833;29;20047;-82
2022/05/22 16:25:06;;;;;;;;;;;;;;;;;;;;;
2022/05/22 16:28:15;;;;;;;;;;;;;;;;;;;;;
2022/05/22 16:30:58;;;;;;;3.78;1.10;;;22.50;99.00;;;;;;4986586;23;20069;-82
2022/05/22 16:33:25;;;;;;;6.25;1.10;;;22.40;99.90;;;;;;4942064;28;20055;-82
2022/05/22 16:35:52;;;;;;;4.18;1.25;;;22.50;99.90;;;;;;4943052;28;20130;-82
2022/05/22 16:38:18;;;;;;;4.75;1.48;;;22.50;99.90;;;;;;4927601;28;20043;-83
2022/05/22 16:40:44;;;;;;;5.03;1.27;;;22.40;99.50;;;;;;4957516;28;20051;-82
2022/05/22 16:43:10;;;;;;;3.30;1.00;;;22.30;99.40;;;;;;4942376;28;20031;-82
2022/05/22 16:45:38;;;;;;;4.47;1.10;;;22.20;99.30;;;;;;4941920;28;20039;-82
2022/05/22 16:53:34;;;;;;;7.00;1.10;;;22.20;97.50;;;;;;4958621;28;19922;-81
2022/05/22 16:56:01;;;;;;;4.55;1.08;;;22.10;99.40;;;;;;4942217;28;20039;-81
2022/05/22 16:58:33;;;;;;;4.78;1.35;;;21.80;99.00;;;;;;4941797;28;20051;-81
2022/05/22 17:01:05;;;;;;;4.57;1.23;;;21.70;98.90;;;;;;4942365;28;20379;-82
2022/05/22 17:03:45;;;;;;;3.50;0.80;;;21.50;98.70;;;;;;4939460;28;20138;-82
2022/05/22 17:06:16;;;;;;;5.05;1.27;;;21.30;98.20;;;;;;4922941;29;20043;-82
2022/05/22 17:08:46;;;;;;;7.63;1.23;;;21.20;98.60;;;;;;4922189;29;20503;-82
2022/05/22 17:11:31;;;;;;;4.68;1.40;;;21.20;98.90;;;;;;4944853;23;20137;-80
2022/05/22 17:14:06;;;;;;;4.35;1.08;;;21.20;99.10;;;;;;4937321;29;20541;-80
2022/05/22 17:16:32;;;;;;;6.05;1.45;;;21.20;99.40;;;;;;4938163;29;20047;-80
2022/05/22 17:18:59;;;;;;;3.67;1.20;;;21.30;99.90;;;;;;4922465;29;20400;-80
2022/05/22 17:21:25;;;;;;;6.47;1.10;;;21.20;99.90;;;;;;4922141;29;20051;-81
2022/05/22 17:23:51;;;;;;;4.15;1.13;;;21.20;99.90;;;;;;4955366;29;20122;-79
2022/05/22 17:26:18;;;;;;;3.67;1.10;;;21.30;99.90;;;;;;4921862;29;20050;-80
2022/05/22 17:28:44;;;;;;;4.05;1.10;;;21.20;99.90;;;;;;4955050;29;20443;-77
2022/05/22 17:31:10;;;;;;;4.43;1.77;;;21.20;99.90;;;;;;4921809;29;20051;-78
2022/05/22 17:33:36;;;;;;;6.07;1.42;;;21.10;99.90;;;;;;4937442;29;20054;-78
2022/05/22 17:36:04;;;;;;;3.60;1.05;;;21.20;99.90;;;;;;4937603;29;20049;-78
2022/05/22 17:38:32;;;;;;;5.78;1.77;;;21.20;99.90;;;;;;4937602;29;20043;-76
2022/05/22 17:40:58;;;;;;;6.15;1.50;;;21.20;99.90;;;;;;4954630;29;20054;-76
2022/05/22 17:43:24;;;;;;;6.03;1.67;;;21.20;99.90;;;;;;4937439;29;20055;-77
2022/05/22 17:45:50;;;;;;;3.50;1.30;;;21.20;99.90;;;;;;4921674;29;20043;-76
2022/05/22 17:48:16;;;;;;;3.65;1.30;;;21.10;99.90;;;;;;4938115;29;20043;-78
2022/05/22 17:50:47;;;;;;;4.22;1.38;;;21.00;99.90;;;;;;4937398;29;20054;-77
2022/05/22 17:53:15;;;;;;;5.70;1.50;;;21.00;99.90;;;;;;4939797;29;20048;-77
2022/05/22 17:55:46;;;;;;;4.43;1.88;;;20.90;99.90;;;;;;4941875;29;20092;-78
2022/05/22 17:58:13;;;;;;;5.72;1.40;;;20.80;99.90;;;;;;4941269;29;20082;-77
2022/05/22 18:00:40;;;;;;;4.55;1.80;;;20.70;99.90;;;;;;4958691;29;20047;-77
2022/05/22 18:03:07;;;;;;;5.82;1.50;;;20.70;99.90;;;;;;4959157;29;20050;-77
2022/05/22 18:05:33;;;;;;;5.55;1.40;;;20.60;99.90;;;;;;4925501;29;20039;-77
2022/05/22 18:07:59;;;;;;;4.78;1.40;;;20.50;99.90;;;;;;4941130;29;20365;-77
2022/05/22 18:16:03;;;;;;;3.63;1.10;;;20.40;99.90;;;;;;4941467;29;20465;-76
2022/05/22 18:18:35;;;;;;;6.32;1.50;;;20.30;99.90;;;;;;4941191;29;20045;-77
2022/05/22 18:21:04;;;;;;;5.57;1.45;;;20.30;99.90;;;;;;4925167;29;20122;-77
2022/05/22 18:23:37;;;;;;;4.38;1.23;;;20.20;99.90;;;;;;4941075;29;20051;-77
2022/05/22 18:26:03;;;;;;;4.78;1.20;;;20.00;99.90;;;;;;4958293;29;20047;-76
2022/05/22 18:28:42;;;;;;;3.17;1.05;;;20.00;99.90;;;;;;4925101;29;20434;-76
2022/05/22 18:31:19;;;;;;;3.03;1.00;;;19.90;99.90;;;;;;4941299;29;20043;-77
2022/05/22 18:33:46;;;;;;;6.10;1.20;;;19.80;99.90;;;;;;4925378;29;20031;-76